Terminal Aerodrome Forecast
Issued by NWS Wilmington, NC

Home | Current Version | Previous Version | Text Only | Print | Product List | Glossary On
Versions: 1 2 3 4 5 6 7 8 9 10 11 12 13 14 15 16 17 18 19 20 21 22 23 24 25 26 27 28 29 30
000
FTUS42 KILM 250920 AAB
TAFILM
TAF AMD
KILM 250920Z 2509/2606 24008KT P6SM SCT020 BKN100
     FM251400 23010KT P6SM BKN040
      TEMPO 2517/2521 4SM -TSRA BKN050CB
     FM252100 25012G20KT P6SM SCT050 PROB30 2521/2523 4SM -TSRA
      BKN050CB
     FM260000 25012KT P6SM FEW250=

USA.gov is the U.S. government's official web portal to all federal, state and local government web resources and services.